Time;durP1;ratioP1;P1;durP2;ratioP2;P2;SDS_P1;SDS_P2;PMS_P1;PMS_P2;Temp;Humidity;BMP_temperature;BMP_pressure;BME280_temperature;BME280_humidity;BME280_pressure;Samples;Min_cycle;Max_cycle;Signal;HPM_P1;HPM_P2
2024/03/29 00:00:27;;;;;;;;;;;;;;;;;;4996646;28;20513;-72
2024/03/29 00:02:52;;;;;;;;;;;;;;;;;;4977256;28;20361;-72
2024/03/29 00:05:20;;;;;;;;;;;;;;;;;;5014232;28;19921;-72
2024/03/29 00:07:50;;;;;;;;;;;;;;;;;;5013473;28;19917;-71
2024/03/29 00:10:18;;;;;;;;;;;;;;;;;;5013172;28;19916;-72
2024/03/29 00:12:43;;;;;;;;;;;;;;;;;;5014401;28;20261;-71
2024/03/29 00:15:13;;;;;;;;;;;;;;;;;;5012348;28;20180;-71
2024/03/29 00:17:38;;;;;;;;;;;;;;;;;;5014417;28;19921;-72
2024/03/29 00:20:04;;;;;;;;;;;;;;;;;;4993657;28;19994;-74
2024/03/29 00:22:31;;;;;;;;;;;;;;;;;;4998089;28;19924;-71
2024/03/29 00:24:57;;;;;;;;;;;;;;;;;;5012134;28;19917;-73
2024/03/29 00:27:26;;;;;;;;;;;;;;;;;;5015156;28;19917;-74
2024/03/29 00:29:54;;;;;;;;;;;;;;;;;;5013408;28;19924;-73
2024/03/29 00:32:20;;;;;;;;;;;;;;;;;;5001414;28;20412;-72
2024/03/29 00:34:45;;;;;;;;;;;;;;;;;;4995447;28;20035;-73
2024/03/29 00:37:10;;;;;;;;;;;;;;;;;;5012315;28;19951;-71
2024/03/29 00:39:35;;;;;;;;;;;;;;;;;;5014457;28;20018;-72
2024/03/29 00:42:01;;;;;;;;;;;;;;;;;;4991654;28;19956;-72
2024/03/29 00:44:29;;;;;;;;;;;;;;;;;;4995167;28;19932;-73
2024/03/29 00:46:54;;;;;;;;;;;;;;;;;;4991676;28;19925;-73
2024/03/29 00:49:19;;;;;;;;;;;;;;;;;;4992419;28;19978;-73
2024/03/29 00:51:47;;;;;;;;;;;;;;;;;;4980299;28;19917;-72
2024/03/29 00:54:15;;;;;;;;;;;;;;;;;;5013754;28;19917;-73
2024/03/29 00:56:40;;;;;;;;;;;;;;;;;;5013723;28;20356;-72
2024/03/29 00:59:08;;;;;;;;;;;;;;;;;;4976384;28;20038;-72
2024/03/29 01:01:36;;;;;;;;;;;;;;;;;;5012720;28;20649;-72
2024/03/29 01:04:01;;;;;;;;;;;;;;;;;;4975630;28;19917;-72
2024/03/29 01:06:26;;;;;;;;;;;;;;;;;;4996062;28;19923;-72
2024/03/29 01:08:52;;;;;;;;;;;;;;;;;;4995238;28;19928;-71
2024/03/29 01:11:19;;;;;;;;;;;;;;;;;;5012403;28;19928;-74
2024/03/29 01:13:44;;;;;;;;;;;;;;;;;;5012393;28;20004;-73
2024/03/29 01:16:13;;;;;;;;;;;;;;;;;;5013627;28;19917;-72
2024/03/29 01:18:43;;;;;;;;;;;;;;;;;;4994609;28;20361;-73
2024/03/29 01:21:08;;;;;;;;;;;;;;;;;;4992432;28;20103;-74
2024/03/29 01:23:37;;;;;;;;;;;;;;;;;;4996683;28;20396;-73
2024/03/29 01:26:05;;;;;;;;;;;;;;;;;;4997311;28;19917;-73
2024/03/29 01:28:35;;;;;;;;;;;;;;;;;;5004074;28;19921;-73
2024/03/29 01:31:06;;;;;;;;;;;;;;;;;;5014753;28;19917;-73
2024/03/29 01:33:37;;;;;;;;;;;;;;;;;;5018294;28;19917;-73
2024/03/29 01:36:02;;;;;;;;;;;;;;;;;;5018000;28;19928;-73
2024/03/29 01:38:32;;;;;;;;;;;;;;;;;;5015351;28;20230;-71
2024/03/29 01:40:58;;;;;;;;;;;;;;;;;;5009459;28;19956;-73
2024/03/29 01:43:23;;;;;;;;;;;;;;;;;;4992354;28;20574;-71
2024/03/29 01:45:51;;;;;;;;;;;;;;;;;;5014823;28;19929;-72
2024/03/29 01:48:16;;;;;;;;;;;;;;;;;;4992848;28;20359;-73
2024/03/29 01:50:42;;;;;;;;;;;;;;;;;;4997898;28;20312;-72
2024/03/29 01:53:08;;;;;;;;;;;;;;;;;;4997650;28;19929;-72
2024/03/29 01:55:34;;;;;;;;;;;;;;;;;;4997648;28;20184;-74
2024/03/29 01:58:02;;;;;;;;;;;;;;;;;;4994845;28;19940;-73
2024/03/29 02:00:30;;;;;;;;;;;;;;;;;;4998375;28;19927;-74
2024/03/29 02:02:55;;;;;;;;;;;;;;;;;;4997618;28;19921;-74
2024/03/29 02:05:20;;;;;;;;;;;;;;;;;;4995100;28;19917;-71
2024/03/29 02:07:47;;;;;;;;;;;;;;;;;;5017522;28;19924;-71
2024/03/29 02:10:15;;;;;;;;;;;;;;;;;;4998269;28;20226;-72
2024/03/29 02:12:40;;;;;;;;;;;;;;;;;;5015856;28;20118;-72
2024/03/29 02:15:08;;;;;;;;;;;;;;;;;;5012585;28;20599;-72
2024/03/29 02:17:33;;;;;;;;;;;;;;;;;;5007909;28;19917;-73
2024/03/29 02:20:05;;;;;;;;;;;;;;;;;;4994715;28;19925;-73
2024/03/29 02:22:33;;;;;;;;;;;;;;;;;;5010912;28;19940;-73
2024/03/29 02:25:02;;;;;;;;;;;;;;;;;;5014107;28;20673;-71
2024/03/29 02:27:30;;;;;;;;;;;;;;;;;;4993846;28;19922;-71
2024/03/29 02:29:58;;;;;;;;;;;;;;;;;;4996537;28;20365;-72
2024/03/29 02:32:24;;;;;;;;;;;;;;;;;;5005534;28;19975;-72
2024/03/29 02:34:49;;;;;;;;;;;;;;;;;;4998054;28;19925;-73
2024/03/29 02:37:16;;;;;;;;;;;;;;;;;;4997164;28;20090;-72
2024/03/29 02:39:42;;;;;;;;;;;;;;;;;;5015176;28;19929;-72
2024/03/29 02:42:07;;;;;;;;;;;;;;;;;;4990582;28;19921;-74
2024/03/29 02:44:35;;;;;;;;;;;;;;;;;;4997440;28;20050;-70
2024/03/29 02:47:00;;;;;;;;;;;;;;;;;;5002254;28;19951;-74
2024/03/29 02:49:28;;;;;;;;;;;;;;;;;;4996402;28;19925;-73
2024/03/29 02:51:56;;;;;;;;;;;;;;;;;;5002298;28;19921;-72
2024/03/29 02:54:24;;;;;;;;;;;;;;;;;;4994545;28;19928;-72
2024/03/29 02:56:49;;;;;;;;;;;;;;;;;;4995734;28;19931;-73
2024/03/29 02:59:17;;;;;;;;;;;;;;;;;;4989227;28;20407;-72
2024/03/29 03:01:42;;;;;;;;;;;;;;;;;;5015134;28;19917;-72
2024/03/29 03:04:12;;;;;;;;;;;;;;;;;;4977714;28;19967;-73
2024/03/29 03:06:40;;;;;;;;;;;;;;;;;;4995735;28;20346;-74
2024/03/29 03:11:51;;;;;;;;;;;;;;;;;;5015695;28;19921;-72
2024/03/29 03:14:17;;;;;;;;;;;;;;;;;;5011254;28;20433;-73
2024/03/29 03:16:42;;;;;;;;;;;;;;;;;;4997744;28;19917;-70
2024/03/29 03:21:57;;;;;;;;;;;;;;;;;;5016186;28;19921;-72
2024/03/29 03:24:26;;;;;;;;;;;;;;;;;;5001187;28;20372;-74
2024/03/29 03:26:53;;;;;;;;;;;;;;;;;;5015493;28;19996;-72
2024/03/29 03:29:21;;;;;;;;;;;;;;;;;;5012457;28;19926;-71
2024/03/29 03:31:49;;;;;;;;;;;;;;;;;;5012892;28;20011;-73
2024/03/29 03:34:17;;;;;;;;;;;;;;;;;;5014914;28;20262;-73
2024/03/29 03:36:42;;;;;;;;;;;;;;;;;;5002015;28;19928;-73
2024/03/29 03:39:10;;;;;;;;;;;;;;;;;;5013595;28;19929;-71
2024/03/29 03:41:38;;;;;;;;;;;;;;;;;;5015388;28;19958;-71
2024/03/29 03:44:04;;;;;;;;;;;;;;;;;;5011262;28;19921;-72
2024/03/29 03:46:29;;;;;;;;;;;;;;;;;;5014002;28;20561;-70
2024/03/29 03:48:54;;;;;;;;;;;;;;;;;;4981069;28;19964;-72
2024/03/29 03:51:19;;;;;;;;;;;;;;;;;;5002567;28;19948;-72
2024/03/29 03:53:45;;;;;;;;;;;;;;;;;;4993191;28;19923;-71
2024/03/29 03:56:10;;;;;;;;;;;;;;;;;;4994468;28;19928;-72
2024/03/29 03:58:35;;;;;;;;;;;;;;;;;;5016059;28;20011;-71
2024/03/29 04:01:24;;;;;;;;;;;;;;;;;;4988996;28;19974;-72
2024/03/29 04:03:52;;;;;;;;;;;;;;;;;;5015926;28;19960;-72
2024/03/29 04:06:17;;;;;;;;;;;;;;;;;;5014576;28;20304;-72
2024/03/29 04:08:54;;;;;;;;;;;;;;;;;;4978551;28;19921;-72
2024/03/29 04:11:22;;;;;;;;;;;;;;;;;;5014678;28;19976;-72
2024/03/29 04:13:52;;;;;;;;;;;;;;;;;;5013669;28;19921;-73
2024/03/29 04:16:26;;;;;;;;;;;;;;;;;;4990957;28;20745;-72
2024/03/29 04:18:52;;;;;;;;;;;;;;;;;;4980902;28;20403;-72
2024/03/29 04:21:20;;;;;;;;;;;;;;;;;;4994410;28;20737;-73
2024/03/29 04:23:45;;;;;;;;;;;;;;;;;;5015602;28;20006;-74
2024/03/29 04:26:10;;;;;;;;;;;;;;;;;;4998486;28;20035;-72
2024/03/29 04:28:36;;;;;;;;;;;;;;;;;;4992134;28;19925;-71
2024/03/29 04:31:05;;;;;;;;;;;;;;;;;;4992379;28;19923;-72
2024/03/29 04:33:30;;;;;;;;;;;;;;;;;;4992879;28;19921;-72
2024/03/29 04:35:56;;;;;;;;;;;;;;;;;;4994641;28;20009;-71
2024/03/29 04:38:23;;;;;;;;;;;;;;;;;;4994358;28;20031;-73
2024/03/29 04:40:52;;;;;;;;;;;;;;;;;;5014400;28;19963;-72
2024/03/29 04:43:17;;;;;;;;;;;;;;;;;;5012055;28;20024;-72
2024/03/29 04:45:45;;;;;;;;;;;;;;;;;;4994277;28;20767;-71
2024/03/29 04:48:10;;;;;;;;;;;;;;;;;;4992129;28;20055;-73
2024/03/29 04:50:41;;;;;;;;;;;;;;;;;;5014281;28;20288;-70
2024/03/29 04:53:07;;;;;;;;;;;;;;;;;;5013816;28;19928;-71
2024/03/29 04:55:33;;;;;;;;;;;;;;;;;;5009126;28;20007;-71
2024/03/29 04:58:01;;;;;;;;;;;;;;;;;;4995361;28;19979;-72
2024/03/29 05:00:26;;;;;;;;;;;;;;;;;;5003526;28;19921;-71
2024/03/29 05:02:51;;;;;;;;;;;;;;;;;;5017957;28;20465;-73
2024/03/29 05:05:22;;;;;;;;;;;;;;;;;;4999480;28;20980;-74
2024/03/29 05:07:49;;;;;;;;;;;;;;;;;;5018377;28;19921;-72
2024/03/29 05:10:18;;;;;;;;;;;;;;;;;;5000547;28;19917;-72
2024/03/29 05:12:43;;;;;;;;;;;;;;;;;;4997851;28;19921;-71
2024/03/29 05:15:08;;;;;;;;;;;;;;;;;;4995947;28;19921;-71
2024/03/29 05:17:37;;;;;;;;;;;;;;;;;;4996215;28;19949;-71
2024/03/29 05:20:05;;;;;;;;;;;;;;;;;;4996202;28;20015;-72
2024/03/29 05:22:34;;;;;;;;;;;;;;;;;;5016419;28;20654;-71
2024/03/29 05:25:03;;;;;;;;;;;;;;;;;;5017206;28;19924;-71
2024/03/29 05:27:29;;;;;;;;;;;;;;;;;;5016149;28;19921;-71
2024/03/29 05:33:10;;;;;;;;;;;;;;;;;;5015059;28;19971;-72
2024/03/29 05:35:41;;;;;;;;;;;;;;;;;;4978749;28;19964;-72
2024/03/29 05:38:06;;;;;;;;;;;;;;;;;;5015509;28;20323;-73
2024/03/29 05:40:31;;;;;;;;;;;;;;;;;;5016668;28;19921;-71
2024/03/29 05:42:56;;;;;;;;;;;;;;;;;;5015317;28;19921;-72
2024/03/29 05:45:22;;;;;;;;;;;;;;;;;;4993925;28;19925;-74
2024/03/29 05:47:47;;;;;;;;;;;;;;;;;;4983349;28;20011;-72
2024/03/29 05:50:15;;;;;;;;;;;;;;;;;;4995576;28;19913;-73
2024/03/29 05:52:42;;;;;;;;;;;;;;;;;;4977318;28;20222;-74
2024/03/29 05:55:09;;;;;;;;;;;;;;;;;;5016038;28;20387;-71
2024/03/29 05:57:38;;;;;;;;;;;;;;;;;;4999826;28;19920;-73
2024/03/29 06:00:03;;;;;;;;;;;;;;;;;;4996078;28;20049;-75
2024/03/29 06:02:28;;;;;;;;;;;;;;;;;;4999883;28;19925;-73
2024/03/29 06:04:59;;;;;;;;;;;;;;;;;;4993493;28;20329;-72
2024/03/29 06:07:25;;;;;;;;;;;;;;;;;;5015864;28;20012;-72
2024/03/29 06:09:50;;;;;;;;;;;;;;;;;;4977776;28;19973;-73
2024/03/29 06:12:18;;;;;;;;;;;;;;;;;;5003549;28;19927;-73
2024/03/29 06:17:30;;;;;;;;;;;;;;;;;;5015227;28;20406;-73
2024/03/29 06:20:02;;;;;;;;;;;;;;;;;;4993202;28;21411;-73
2024/03/29 06:22:30;;;;;;;;;;;;;;;;;;5015424;28;19928;-74
2024/03/29 06:25:09;;;;;;;;;;;;;;;;;;4992696;28;19921;-73
2024/03/29 06:27:34;;;;;;;;;;;;;;;;;;4997242;28;20012;-72
2024/03/29 06:30:02;;;;;;;;;;;;;;;;;;4994804;28;20498;-72
2024/03/29 06:32:30;;;;;;;;;;;;;;;;;;5016819;28;19920;-72
2024/03/29 06:35:01;;;;;;;;;;;;;;;;;;4994939;28;20024;-72
2024/03/29 06:37:29;;;;;;;;;;;;;;;;;;4993589;28;19957;-72
2024/03/29 06:39:54;;;;;;;;;;;;;;;;;;4996267;28;19929;-71
2024/03/29 06:42:19;;;;;;;;;;;;;;;;;;5016465;28;20290;-71
2024/03/29 06:44:44;;;;;;;;;;;;;;;;;;4995566;28;20525;-71
2024/03/29 06:47:10;;;;;;;;;;;;;;;;;;5015485;28;20301;-72
2024/03/29 06:52:27;;;;;;;;;;;;;;;;;;5016310;28;20529;-72
2024/03/29 06:55:02;;;;;;;;;;;;;;;;;;4997039;28;19913;-72
2024/03/29 06:57:31;;;;;;;;;;;;;;;;;;4993395;28;19963;-71
2024/03/29 06:59:56;;;;;;;;;;;;;;;;;;4997166;28;19921;-72
2024/03/29 07:02:24;;;;;;;;;;;;;;;;;;4997084;28;19960;-72
2024/03/29 07:04:52;;;;;;;;;;;;;;;;;;4991973;28;19921;-72
2024/03/29 07:07:18;;;;;;;;;;;;;;;;;;5015472;28;19940;-73
2024/03/29 07:09:43;;;;;;;;;;;;;;;;;;4996850;28;19917;-73
2024/03/29 07:12:09;;;;;;;;;;;;;;;;;;4996886;28;19917;-71
2024/03/29 07:14:35;;;;;;;;;;;;;;;;;;5014490;28;20012;-73
2024/03/29 07:17:00;;;;;;;;;;;;;;;;;;5014999;28;20003;-72
2024/03/29 07:19:26;;;;;;;;;;;;;;;;;;4978981;28;20053;-71
2024/03/29 07:21:57;;;;;;;;;;;;;;;;;;5002299;28;19921;-72
2024/03/29 07:24:28;;;;;;;;;;;;;;;;;;5001561;28;20463;-71
2024/03/29 07:26:53;;;;;;;;;;;;;;;;;;4984846;28;19927;-72
2024/03/29 07:29:18;;;;;;;;;;;;;;;;;;5012280;28;19921;-72
2024/03/29 07:31:46;;;;;;;;;;;;;;;;;;5015134;28;19917;-72
2024/03/29 07:34:11;;;;;;;;;;;;;;;;;;4994289;28;19931;-73
2024/03/29 07:36:37;;;;;;;;;;;;;;;;;;4992910;28;20297;-73
2024/03/29 07:39:03;;;;;;;;;;;;;;;;;;4995292;28;19956;-73
2024/03/29 07:41:34;;;;;;;;;;;;;;;;;;4977798;28;19924;-73
2024/03/29 07:44:00;;;;;;;;;;;;;;;;;;4996645;28;19917;-73
2024/03/29 07:46:25;;;;;;;;;;;;;;;;;;4991195;28;19928;-67
2024/03/29 07:52:10;;;;;;;;;;;;;;;;;;5015456;28;20008;-72
2024/03/29 07:54:35;;;;;;;;;;;;;;;;;;5000048;28;20598;-72
2024/03/29 07:57:01;;;;;;;;;;;;;;;;;;4978215;28;20152;-78
2024/03/29 07:59:28;;;;;;;;;;;;;;;;;;5012026;28;19927;-73
2024/03/29 08:01:55;;;;;;;;;;;;;;;;;;4991751;28;19956;-72
2024/03/29 08:04:21;;;;;;;;;;;;;;;;;;4997251;28;19921;-72
2024/03/29 08:06:48;;;;;;;;;;;;;;;;;;4995242;28;19999;-72
2024/03/29 08:09:14;;;;;;;;;;;;;;;;;;5014479;28;19913;-77
2024/03/29 08:11:39;;;;;;;;;;;;;;;;;;4991198;28;20415;-71
2024/03/29 08:14:07;;;;;;;;;;;;;;;;;;4996695;28;19921;-72
2024/03/29 08:16:32;;;;;;;;;;;;;;;;;;5005231;28;19925;-72
2024/03/29 08:19:00;;;;;;;;;;;;;;;;;;5012479;28;20713;-71
2024/03/29 08:21:27;;;;;;;;;;;;;;;;;;5011513;28;19928;-70
2024/03/29 08:23:54;;;;;;;;;;;;;;;;;;4995864;28;19913;-72
2024/03/29 08:26:22;;;;;;;;;;;;;;;;;;4999726;28;20380;-73
2024/03/29 08:28:50;;;;;;;;;;;;;;;;;;5013514;28;19964;-74
2024/03/29 08:31:24;;;;;;;;;;;;;;;;;;4974297;28;20438;-73
2024/03/29 08:33:52;;;;;;;;;;;;;;;;;;5018369;28;19921;-74
2024/03/29 08:36:33;;;;;;;;;;;;;;;;;;5018161;28;19952;-70
2024/03/29 08:38:58;;;;;;;;;;;;;;;;;;5009133;28;20566;-73
2024/03/29 08:41:26;;;;;;;;;;;;;;;;;;4992233;28;20033;-73
2024/03/29 08:43:51;;;;;;;;;;;;;;;;;;4996400;28;19921;-73
2024/03/29 08:46:16;;;;;;;;;;;;;;;;;;4979668;28;20407;-74
2024/03/29 08:48:43;;;;;;;;;;;;;;;;;;4996165;28;20007;-74
2024/03/29 08:51:09;;;;;;;;;;;;;;;;;;5012619;28;19921;-73
2024/03/29 08:53:34;;;;;;;;;;;;;;;;;;5003274;28;19925;-72
2024/03/29 08:56:05;;;;;;;;;;;;;;;;;;4999046;28;20004;-73
2024/03/29 08:58:32;;;;;;;;;;;;;;;;;;5013943;28;19917;-73
2024/03/29 09:01:03;;;;;;;;;;;;;;;;;;5013596;28;19927;-79
2024/03/29 09:03:29;;;;;;;;;;;;;;;;;;5000806;28;19952;-76
2024/03/29 09:05:54;;;;;;;;;;;;;;;;;;5012900;28;20420;-74
2024/03/29 09:08:20;;;;;;;;;;;;;;;;;;5015228;28;19932;-72
2024/03/29 09:10:48;;;;;;;;;;;;;;;;;;5001960;28;20630;-71
2024/03/29 09:13:13;;;;;;;;;;;;;;;;;;4985579;28;20487;-72
2024/03/29 09:15:42;;;;;;;;;;;;;;;;;;5008843;28;19921;-74
2024/03/29 09:18:12;;;;;;;;;;;;;;;;;;4996375;28;19924;-72
2024/03/29 09:23:59;;;;;;;;;;;;;;;;;;5012719;28;19933;-73
2024/03/29 09:26:25;;;;;;;;;;;;;;;;;;5011420;28;19936;-73
2024/03/29 09:28:55;;;;;;;;;;;;;;;;;;4996175;28;19922;-73
2024/03/29 09:31:23;;;;;;;;;;;;;;;;;;4981531;28;19921;-73
2024/03/29 09:33:52;;;;;;;;;;;;;;;;;;5009456;28;19918;-72
2024/03/29 09:36:18;;;;;;;;;;;;;;;;;;5010298;28;19921;-72
2024/03/29 09:38:43;;;;;;;;;;;;;;;;;;4995505;28;20296;-74
2024/03/29 09:41:08;;;;;;;;;;;;;;;;;;5016016;28;19964;-72
2024/03/29 09:43:33;;;;;;;;;;;;;;;;;;4980949;28;20008;-75
2024/03/29 09:46:01;;;;;;;;;;;;;;;;;;4979219;28;19921;-74
2024/03/29 09:48:29;;;;;;;;;;;;;;;;;;5017348;28;20188;-73
2024/03/29 09:50:55;;;;;;;;;;;;;;;;;;4996625;28;19969;-75
2024/03/29 09:53:20;;;;;;;;;;;;;;;;;;5016937;28;20019;-73
2024/03/29 09:58:42;;;;;;;;;;;;;;;;;;5016462;28;20031;-74
2024/03/29 10:01:13;;;;;;;;;;;;;;;;;;5008062;28;20260;-75
2024/03/29 10:06:55;;;;;;;;;;;;;;;;;;5014888;28;19924;-74
2024/03/29 10:09:22;;;;;;;;;;;;;;;;;;5000087;28;20089;-76
2024/03/29 10:11:47;;;;;;;;;;;;;;;;;;4973348;28;20448;-74
2024/03/29 10:14:18;;;;;;;;;;;;;;;;;;4998201;28;19960;-74
2024/03/29 10:16:43;;;;;;;;;;;;;;;;;;4975414;28;19916;-73
2024/03/29 10:19:10;;;;;;;;;;;;;;;;;;4977072;28;20043;-73
2024/03/29 10:21:39;;;;;;;;;;;;;;;;;;4994258;28;20091;-72
2024/03/29 10:24:07;;;;;;;;;;;;;;;;;;5003588;28;20028;-72
2024/03/29 10:26:35;;;;;;;;;;;;;;;;;;4981430;28;20587;-72
2024/03/29 10:29:03;;;;;;;;;;;;;;;;;;4998385;28;19924;-73
2024/03/29 10:31:31;;;;;;;;;;;;;;;;;;5006998;28;20460;-73
2024/03/29 10:33:59;;;;;;;;;;;;;;;;;;4998182;28;19927;-72
2024/03/29 10:36:24;;;;;;;;;;;;;;;;;;5002268;28;19921;-73
2024/03/29 10:38:51;;;;;;;;;;;;;;;;;;5016105;28;19925;-72
2024/03/29 10:41:17;;;;;;;;;;;;;;;;;;4979756;28;20156;-74
2024/03/29 10:43:43;;;;;;;;;;;;;;;;;;4987991;28;19925;-74
2024/03/29 10:46:11;;;;;;;;;;;;;;;;;;5015881;28;20545;-72
2024/03/29 10:48:36;;;;;;;;;;;;;;;;;;4998579;28;20016;-72
2024/03/29 10:51:04;;;;;;;;;;;;;;;;;;4986614;28;19917;-73
2024/03/29 10:53:35;;;;;;;;;;;;;;;;;;4978389;28;19928;-73
2024/03/29 10:56:00;;;;;;;;;;;;;;;;;;5013601;28;20364;-73
2024/03/29 10:58:25;;;;;;;;;;;;;;;;;;4979319;28;19917;-74
2024/03/29 11:00:51;;;;;;;;;;;;;;;;;;4995850;28;19928;-73
2024/03/29 11:03:16;;;;;;;;;;;;;;;;;;4993803;28;19917;-74
2024/03/29 11:05:44;;;;;;;;;;;;;;;;;;5013656;28;20035;-73
2024/03/29 11:08:11;;;;;;;;;;;;;;;;;;5016354;28;19929;-73
2024/03/29 11:10:39;;;;;;;;;;;;;;;;;;4979604;28;19978;-76
2024/03/29 11:13:05;;;;;;;;;;;;;;;;;;4999006;28;20011;-76
2024/03/29 11:15:31;;;;;;;;;;;;;;;;;;4980115;28;20015;-76
2024/03/29 11:17:59;;;;;;;;;;;;;;;;;;4997853;28;19929;-76
2024/03/29 11:20:33;;;;;;;;;;;;;;;;;;4993145;28;20396;-75
2024/03/29 11:23:05;;;;;;;;;;;;;;;;;;4995147;28;19923;-74
2024/03/29 11:25:33;;;;;;;;;;;;;;;;;;4997555;28;20581;-75
2024/03/29 11:28:01;;;;;;;;;;;;;;;;;;5002835;28;19948;-75
2024/03/29 11:30:32;;;;;;;;;;;;;;;;;;5013805;28;19917;-77
2024/03/29 11:32:58;;;;;;;;;;;;;;;;;;5014381;28;19924;-74
2024/03/29 11:35:27;;;;;;;;;;;;;;;;;;4995689;28;19917;-73
2024/03/29 11:37:52;;;;;;;;;;;;;;;;;;4980185;28;19917;-75
2024/03/29 11:40:17;;;;;;;;;;;;;;;;;;5000621;28;20301;-76
2024/03/29 11:42:43;;;;;;;;;;;;;;;;;;5000666;28;20335;-76
2024/03/29 11:45:11;;;;;;;;;;;;;;;;;;4992964;28;19917;-76
2024/03/29 11:50:53;;;;;;;;;;;;;;;;;;5014694;28;19924;-74
2024/03/29 11:53:18;;;;;;;;;;;;;;;;;;4996047;28;19921;-76
2024/03/29 11:55:43;;;;;;;;;;;;;;;;;;5016003;28;20446;-75
2024/03/29 11:58:09;;;;;;;;;;;;;;;;;;5118398;23;19924;-86
2024/03/29 12:00:38;;;;;;;;;;;;;;;;;;5053254;28;19916;-89
2024/03/29 12:03:04;;;;;;;;;;;;;;;;;;5030869;28;19941;-89
2024/03/29 12:05:29;;;;;;;;;;;;;;;;;;5053400;28;19923;-87
2024/03/29 12:07:58;;;;;;;;;;;;;;;;;;5053462;28;19912;-87
2024/03/29 12:10:27;;;;;;;;;;;;;;;;;;5030118;28;19921;-91
2024/03/29 12:12:53;;;;;;;;;;;;;;;;;;5038951;28;19936;-89
2024/03/29 12:15:19;;;;;;;;;;;;;;;;;;5056714;28;19913;-87
2024/03/29 12:17:48;;;;;;;;;;;;;;;;;;5038201;28;19921;-89
2024/03/29 12:20:17;;;;;;;;;;;;;;;;;;5034652;28;19917;-86
2024/03/29 12:22:42;;;;;;;;;;;;;;;;;;5040043;28;20000;-87
2024/03/29 12:25:07;;;;;;;;;;;;;;;;;;5035116;28;19952;-87
2024/03/29 12:27:43;;;;;;;;;;;;;;;;;;5040559;28;19912;-89
2024/03/29 12:30:12;;;;;;;;;;;;;;;;;;5033841;28;20011;-86
2024/03/29 12:32:40;;;;;;;;;;;;;;;;;;5050964;28;19916;-87
2024/03/29 12:35:09;;;;;;;;;;;;;;;;;;5056646;28;19924;-87
2024/03/29 12:37:35;;;;;;;;;;;;;;;;;;5055748;28;19912;-84
2024/03/29 12:40:11;;;;;;;;;;;;;;;;;;5056712;28;19991;-85
2024/03/29 12:42:36;;;;;;;;;;;;;;;;;;5057066;28;19943;-88
2024/03/29 12:45:06;;;;;;;;;;;;;;;;;;5048696;28;19913;-87
2024/03/29 12:47:33;;;;;;;;;;;;;;;;;;5050488;28;19913;-89
2024/03/29 12:49:59;;;;;;;;;;;;;;;;;;5045977;28;19996;-87
2024/03/29 12:52:25;;;;;;;;;;;;;;;;;;5057777;28;20043;-87
2024/03/29 12:54:51;;;;;;;;;;;;;;;;;;5057257;28;19912;-88
2024/03/29 12:57:16;;;;;;;;;;;;;;;;;;5038527;28;19917;-86
2024/03/29 12:59:44;;;;;;;;;;;;;;;;;;5036527;28;20052;-88
2024/03/29 13:02:09;;;;;;;;;;;;;;;;;;5020252;28;19910;-86
2024/03/29 13:04:34;;;;;;;;;;;;;;;;;;5051662;28;19912;-86
2024/03/29 13:07:02;;;;;;;;;;;;;;;;;;5053761;28;19980;-85
2024/03/29 13:09:35;;;;;;;;;;;;;;;;;;5018917;28;19913;-83
2024/03/29 13:12:00;;;;;;;;;;;;;;;;;;5033611;28;19924;-86
2024/03/29 13:14:25;;;;;;;;;;;;;;;;;;5024190;28;19920;-86
2024/03/29 13:16:51;;;;;;;;;;;;;;;;;;5012958;28;20147;-87
2024/03/29 13:19:16;;;;;;;;;;;;;;;;;;5028648;28;19921;-88
2024/03/29 13:21:41;;;;;;;;;;;;;;;;;;5017592;28;19917;-88
2024/03/29 13:24:09;;;;;;;;;;;;;;;;;;5030989;28;19913;-87
2024/03/29 13:26:35;;;;;;;;;;;;;;;;;;5045276;28;19924;-87
2024/03/29 13:29:00;;;;;;;;;;;;;;;;;;5038421;28;20084;-87
2024/03/29 13:31:29;;;;;;;;;;;;;;;;;;5022756;28;19913;-86
2024/03/29 13:34:03;;;;;;;;;;;;;;;;;;5032330;28;19917;-86
2024/03/29 13:36:32;;;;;;;;;;;;;;;;;;5032141;28;19923;-87
2024/03/29 13:38:57;;;;;;;;;;;;;;;;;;5044577;28;19984;-87
2024/03/29 13:41:39;;;;;;;;;;;;;;;;;;5074661;27;19928;-76
2024/03/29 13:44:07;;;;;;;;;;;;;;;;;;5108094;27;19920;-75
2024/03/29 13:46:32;;;;;;;;;;;;;;;;;;5107552;27;19917;-76
2024/03/29 13:48:57;;;;;;;;;;;;;;;;;;5073805;28;20427;-77
2024/03/29 13:51:28;;;;;;;;;;;;;;;;;;5075318;28;19920;-75
2024/03/29 13:53:56;;;;;;;;;;;;;;;;;;5072301;28;19920;-76
2024/03/29 13:56:22;;;;;;;;;;;;;;;;;;5074195;28;19924;-75
2024/03/29 13:58:49;;;;;;;;;;;;;;;;;;5071499;28;20789;-76
2024/03/29 14:01:16;;;;;;;;;;;;;;;;;;5070770;28;19928;-76
2024/03/29 14:03:44;;;;;;;;;;;;;;;;;;5074315;28;20295;-76
2024/03/29 14:06:11;;;;;;;;;;;;;;;;;;5070030;28;19920;-76
2024/03/29 14:08:37;;;;;;;;;;;;;;;;;;5053624;28;20392;-77
2024/03/29 14:11:07;;;;;;;;;;;;;;;;;;5054006;28;20029;-75
2024/03/29 14:13:39;;;;;;;;;;;;;;;;;;5072385;28;20503;-75
2024/03/29 14:16:04;;;;;;;;;;;;;;;;;;5071923;28;21322;-75
2024/03/29 14:18:29;;;;;;;;;;;;;;;;;;5073455;28;19920;-75
2024/03/29 14:20:57;;;;;;;;;;;;;;;;;;5070673;28;20324;-76
2024/03/29 14:23:25;;;;;;;;;;;;;;;;;;5072945;28;20098;-74
2024/03/29 14:25:50;;;;;;;;;;;;;;;;;;5067744;28;19959;-73
2024/03/29 14:28:15;;;;;;;;;;;;;;;;;;5070106;28;20002;-77
2024/03/29 14:30:40;;;;;;;;;;;;;;;;;;5073278;28;19931;-76
2024/03/29 14:33:08;;;;;;;;;;;;;;;;;;5054915;28;19920;-75
2024/03/29 14:35:33;;;;;;;;;;;;;;;;;;5072756;28;19916;-71
2024/03/29 14:38:01;;;;;;;;;;;;;;;;;;5073611;28;20163;-74
2024/03/29 14:40:29;;;;;;;;;;;;;;;;;;5070767;28;20493;-74
2024/03/29 14:42:57;;;;;;;;;;;;;;;;;;5071183;28;19912;-74
2024/03/29 14:45:23;;;;;;;;;;;;;;;;;;5069728;28;19916;-73
2024/03/29 14:47:50;;;;;;;;;;;;;;;;;;5071005;28;20267;-73
2024/03/29 14:50:18;;;;;;;;;;;;;;;;;;5073763;28;20082;-73
2024/03/29 14:52:46;;;;;;;;;;;;;;;;;;5058764;28;19920;-72
2024/03/29 14:55:14;;;;;;;;;;;;;;;;;;5057335;28;21994;-73
2024/03/29 14:57:39;;;;;;;;;;;;;;;;;;5058018;28;20884;-74
2024/03/29 15:00:10;;;;;;;;;;;;;;;;;;5055679;28;19920;-73
2024/03/29 15:02:35;;;;;;;;;;;;;;;;;;5055505;28;20007;-74
2024/03/29 15:05:05;;;;;;;;;;;;;;;;;;5058283;28;19920;-74
2024/03/29 15:07:30;;;;;;;;;;;;;;;;;;5058648;28;19916;-74
2024/03/29 15:09:58;;;;;;;;;;;;;;;;;;5041109;28;20280;-73
2024/03/29 15:15:42;;;;;;;;;;;;;;;;;;5056269;28;19922;-75
2024/03/29 15:18:07;;;;;;;;;;;;;;;;;;5061674;28;19927;-74
2024/03/29 15:20:32;;;;;;;;;;;;;;;;;;5044873;28;19947;-73
2024/03/29 15:22:58;;;;;;;;;;;;;;;;;;5038711;28;19912;-75
2024/03/29 15:25:29;;;;;;;;;;;;;;;;;;5041949;28;19967;-78
2024/03/29 15:30:41;;;;;;;;;;;;;;;;;;5057576;28;19927;-75
2024/03/29 15:33:09;;;;;;;;;;;;;;;;;;5060210;28;19915;-74
2024/03/29 15:35:35;;;;;;;;;;;;;;;;;;5058913;28;19973;-75
2024/03/29 15:38:06;;;;;;;;;;;;;;;;;;5055615;28;19968;-74
2024/03/29 15:40:31;;;;;;;;;;;;;;;;;;5057879;28;19931;-74
2024/03/29 15:42:58;;;;;;;;;;;;;;;;;;5055934;28;20328;-73
2024/03/29 15:45:27;;;;;;;;;;;;;;;;;;5056789;28;19920;-74
2024/03/29 15:47:52;;;;;;;;;;;;;;;;;;5056896;28;19969;-74
2024/03/29 15:50:21;;;;;;;;;;;;;;;;;;5056019;28;19951;-75
2024/03/29 15:52:46;;;;;;;;;;;;;;;;;;5055249;28;20287;-74
2024/03/29 15:55:14;;;;;;;;;;;;;;;;;;5045496;28;19917;-73
2024/03/29 15:57:41;;;;;;;;;;;;;;;;;;5055488;28;19927;-75
2024/03/29 16:00:09;;;;;;;;;;;;;;;;;;5057948;28;19973;-73
2024/03/29 16:02:37;;;;;;;;;;;;;;;;;;5054124;28;19956;-74
2024/03/29 16:05:03;;;;;;;;;;;;;;;;;;5057167;28;19999;-73
2024/03/29 16:07:31;;;;;;;;;;;;;;;;;;5054773;28;21581;-73
2024/03/29 16:09:57;;;;;;;;;;;;;;;;;;5057632;28;20349;-74
2024/03/29 16:12:25;;;;;;;;;;;;;;;;;;5037411;28;19948;-74
2024/03/29 16:14:50;;;;;;;;;;;;;;;;;;5054397;28;20430;-75
2024/03/29 16:17:18;;;;;;;;;;;;;;;;;;5055537;28;19931;-75
2024/03/29 16:19:43;;;;;;;;;;;;;;;;;;5055616;28;19920;-74
2024/03/29 16:22:11;;;;;;;;;;;;;;;;;;5056318;28;19920;-76
2024/03/29 16:24:36;;;;;;;;;;;;;;;;;;5053675;28;20009;-74
2024/03/29 16:27:04;;;;;;;;;;;;;;;;;;5045176;28;20257;-75
2024/03/29 16:29:34;;;;;;;;;;;;;;;;;;5053253;28;20872;-74
2024/03/29 16:32:03;;;;;;;;;;;;;;;;;;5058459;28;19923;-73
2024/03/29 16:34:29;;;;;;;;;;;;;;;;;;5055203;28;20014;-74
2024/03/29 16:36:57;;;;;;;;;;;;;;;;;;5038552;28;19927;-73
2024/03/29 16:39:22;;;;;;;;;;;;;;;;;;5036269;28;21263;-73
2024/03/29 16:41:50;;;;;;;;;;;;;;;;;;5057378;28;20222;-76
2024/03/29 16:44:15;;;;;;;;;;;;;;;;;;5052482;28;19989;-73
2024/03/29 16:46:41;;;;;;;;;;;;;;;;;;5041045;28;20375;-72
2024/03/29 16:49:09;;;;;;;;;;;;;;;;;;5056846;28;19928;-73
2024/03/29 16:51:34;;;;;;;;;;;;;;;;;;5054274;28;19920;-73
2024/03/29 16:54:02;;;;;;;;;;;;;;;;;;5055651;28;19992;-72
2024/03/29 16:56:27;;;;;;;;;;;;;;;;;;5054013;28;20686;-72
2024/03/29 16:58:57;;;;;;;;;;;;;;;;;;5057092;28;20032;-73
2024/03/29 17:01:23;;;;;;;;;;;;;;;;;;5035118;28;19984;-73
2024/03/29 17:03:48;;;;;;;;;;;;;;;;;;5055573;28;19928;-73
2024/03/29 17:06:18;;;;;;;;;;;;;;;;;;5056812;28;20190;-72
2024/03/29 17:08:44;;;;;;;;;;;;;;;;;;5054881;28;20375;-73
2024/03/29 17:11:09;;;;;;;;;;;;;;;;;;5057196;28;19920;-73
2024/03/29 17:13:34;;;;;;;;;;;;;;;;;;5053726;28;19920;-72
2024/03/29 17:16:02;;;;;;;;;;;;;;;;;;5053765;28;19920;-73
2024/03/29 17:18:30;;;;;;;;;;;;;;;;;;5054372;28;20424;-74
2024/03/29 17:20:57;;;;;;;;;;;;;;;;;;5053773;28;20399;-75